sensor_id;sensor_type;location;lat;lon;timestamp;pressure;altitude;pressure_sealevel;temperature;humidity
36502;BME280;25393;46.108;3.390;2023-04-28T00:01:29;97796.00;;;14.41;97.01
36502;BME280;25393;46.108;3.390;2023-04-28T00:03:55;97805.84;;;14.41;97.32
36502;BME280;25393;46.108;3.390;2023-04-28T00:06:26;97819.03;;;14.49;97.02
36502;BME280;25393;46.108;3.390;2023-04-28T00:08:56;97805.03;;;14.40;97.07
36502;BME280;25393;46.108;3.390;2023-04-28T00:11:26;97812.63;;;14.50;95.88
36502;BME280;25393;46.108;3.390;2023-04-28T00:13:53;97819.59;;;14.44;95.02
36502;BME280;25393;46.108;3.390;2023-04-28T00:16:22;97812.09;;;14.27;95.18
36502;BME280;25393;46.108;3.390;2023-04-28T00:18:51;97825.56;;;14.12;95.14
36502;BME280;25393;46.108;3.390;2023-04-28T00:21:18;97826.31;;;13.99;95.96
36502;BME280;25393;46.108;3.390;2023-04-28T00:23:44;97822.72;;;13.86;97.24
36502;BME280;25393;46.108;3.390;2023-04-28T00:26:11;97820.63;;;13.81;97.89
36502;BME280;25393;46.108;3.390;2023-04-28T00:28:38;97819.56;;;13.76;98.61
36502;BME280;25393;46.108;3.390;2023-04-28T00:31:12;97825.31;;;13.79;98.66
36502;BME280;25393;46.108;3.390;2023-04-28T00:33:39;97829.19;;;13.77;99.85
36502;BME280;25393;46.108;3.390;2023-04-28T00:36:06;97830.22;;;13.76;99.95
36502;BME280;25393;46.108;3.390;2023-04-28T00:38:34;97828.91;;;13.65;100.00
36502;BME280;25393;46.108;3.390;2023-04-28T00:41:01;97820.00;;;13.51;100.00
36502;BME280;25393;46.108;3.390;2023-04-28T00:43:27;97818.50;;;13.42;100.00
36502;BME280;25393;46.108;3.390;2023-04-28T00:45:54;97817.72;;;13.48;100.00
36502;BME280;25393;46.108;3.390;2023-04-28T00:48:22;97822.88;;;13.50;100.00
36502;BME280;25393;46.108;3.390;2023-04-28T00:50:50;97823.63;;;13.44;100.00
36502;BME280;25393;46.108;3.390;2023-04-28T00:53:17;97824.25;;;13.46;100.00
36502;BME280;25393;46.108;3.390;2023-04-28T00:55:44;97827.84;;;13.60;100.00
36502;BME280;25393;46.108;3.390;2023-04-28T00:58:11;97819.84;;;13.60;100.00
36502;BME280;25393;46.108;3.390;2023-04-28T01:00:38;97809.03;;;13.61;100.00
36502;BME280;25393;46.108;3.390;2023-04-28T01:03:04;97814.00;;;13.71;100.00
36502;BME280;25393;46.108;3.390;2023-04-28T01:05:31;97808.53;;;13.79;100.00
36502;BME280;25393;46.108;3.390;2023-04-28T01:07:58;97798.47;;;13.74;100.00
36502;BME280;25393;46.108;3.390;2023-04-28T01:10:25;97811.88;;;13.87;100.00
36502;BME280;25393;46.108;3.390;2023-04-28T01:12:54;97819.28;;;13.92;99.73
36502;BME280;25393;46.108;3.390;2023-04-28T01:15:21;97811.88;;;13.87;99.52
36502;BME280;25393;46.108;3.390;2023-04-28T01:17:47;97801.50;;;13.99;98.57
36502;BME280;25393;46.108;3.390;2023-04-28T01:20:14;97808.47;;;14.00;98.17
36502;BME280;25393;46.108;3.390;2023-04-28T01:22:40;97789.31;;;13.90;98.82
36502;BME280;25393;46.108;3.390;2023-04-28T01:25:07;97799.63;;;13.93;98.86
36502;BME280;25393;46.108;3.390;2023-04-28T01:27:34;97805.97;;;13.92;98.88
36502;BME280;25393;46.108;3.390;2023-04-28T01:30:00;97817.59;;;13.84;99.78
36502;BME280;25393;46.108;3.390;2023-04-28T01:32:27;97806.88;;;13.78;99.79
36502;BME280;25393;46.108;3.390;2023-04-28T01:34:56;97820.00;;;13.79;100.00
36502;BME280;25393;46.108;3.390;2023-04-28T01:37:25;97810.81;;;13.82;100.00
36502;BME280;25393;46.108;3.390;2023-04-28T01:39:52;97809.00;;;13.89;99.63
36502;BME280;25393;46.108;3.390;2023-04-28T01:42:18;97803.97;;;13.73;100.00
36502;BME280;25393;46.108;3.390;2023-04-28T01:44:45;97818.47;;;13.64;99.17
36502;BME280;25393;46.108;3.390;2023-04-28T01:47:11;97824.75;;;13.56;98.69
36502;BME280;25393;46.108;3.390;2023-04-28T01:49:37;97820.75;;;13.45;99.66
36502;BME280;25393;46.108;3.390;2023-04-28T01:52:04;97827.94;;;13.45;99.78
36502;BME280;25393;46.108;3.390;2023-04-28T01:54:32;97827.69;;;13.40;100.00
36502;BME280;25393;46.108;3.390;2023-04-28T01:56:58;97826.81;;;13.33;100.00
36502;BME280;25393;46.108;3.390;2023-04-28T01:59:26;97828.59;;;13.26;100.00
36502;BME280;25393;46.108;3.390;2023-04-28T02:01:52;97830.41;;;13.25;100.00
36502;BME280;25393;46.108;3.390;2023-04-28T02:04:19;97818.31;;;13.23;100.00
36502;BME280;25393;46.108;3.390;2023-04-28T02:06:45;97822.06;;;13.28;100.00
36502;BME280;25393;46.108;3.390;2023-04-28T02:09:12;97835.09;;;13.23;100.00
36502;BME280;25393;46.108;3.390;2023-04-28T02:11:38;97833.84;;;13.19;100.00
36502;BME280;25393;46.108;3.390;2023-04-28T02:14:05;97818.25;;;13.16;100.00
36502;BME280;25393;46.108;3.390;2023-04-28T02:16:31;97823.94;;;13.13;100.00
36502;BME280;25393;46.108;3.390;2023-04-28T02:18:59;97841.44;;;13.22;100.00
36502;BME280;25393;46.108;3.390;2023-04-28T02:21:27;97839.16;;;13.19;100.00
36502;BME280;25393;46.108;3.390;2023-04-28T02:23:53;97831.38;;;13.03;100.00
36502;BME280;25393;46.108;3.390;2023-04-28T02:26:20;97851.00;;;13.02;100.00
36502;BME280;25393;46.108;3.390;2023-04-28T02:28:46;97846.22;;;12.91;100.00
36502;BME280;25393;46.108;3.390;2023-04-28T02:31:14;97848.88;;;12.91;100.00
36502;BME280;25393;46.108;3.390;2023-04-28T02:33:41;97833.00;;;12.83;100.00
36502;BME280;25393;46.108;3.390;2023-04-28T02:36:08;97823.59;;;12.80;100.00
36502;BME280;25393;46.108;3.390;2023-04-28T02:38:36;97830.81;;;12.86;100.00
36502;BME280;25393;46.108;3.390;2023-04-28T02:41:06;97829.16;;;13.07;100.00
36502;BME280;25393;46.108;3.390;2023-04-28T02:43:34;97828.25;;;13.14;100.00
36502;BME280;25393;46.108;3.390;2023-04-28T02:46:03;97822.63;;;13.24;100.00
36502;BME280;25393;46.108;3.390;2023-04-28T02:48:30;97817.88;;;13.40;100.00
36502;BME280;25393;46.108;3.390;2023-04-28T02:50:59;97816.44;;;13.44;100.00
36502;BME280;25393;46.108;3.390;2023-04-28T02:53:26;97819.38;;;13.49;100.00
36502;BME280;25393;46.108;3.390;2023-04-28T02:55:53;97819.41;;;13.56;100.00
36502;BME280;25393;46.108;3.390;2023-04-28T02:58:19;97817.16;;;13.53;100.00
36502;BME280;25393;46.108;3.390;2023-04-28T03:00:47;97815.75;;;13.57;100.00
36502;BME280;25393;46.108;3.390;2023-04-28T03:03:13;97814.19;;;13.69;100.00
36502;BME280;25393;46.108;3.390;2023-04-28T03:05:40;97809.50;;;13.71;100.00
36502;BME280;25393;46.108;3.390;2023-04-28T03:08:07;97808.44;;;13.66;100.00
36502;BME280;25393;46.108;3.390;2023-04-28T03:10:34;97804.66;;;13.54;100.00
36502;BME280;25393;46.108;3.390;2023-04-28T03:13:00;97816.72;;;13.49;100.00
36502;BME280;25393;46.108;3.390;2023-04-28T03:15:27;97802.91;;;13.39;100.00
36502;BME280;25393;46.108;3.390;2023-04-28T03:17:53;97810.63;;;13.34;100.00
36502;BME280;25393;46.108;3.390;2023-04-28T03:20:20;97821.28;;;13.34;100.00
36502;BME280;25393;46.108;3.390;2023-04-28T03:22:46;97816.16;;;13.33;100.00
36502;BME280;25393;46.108;3.390;2023-04-28T03:25:13;97815.28;;;13.26;100.00
36502;BME280;25393;46.108;3.390;2023-04-28T03:27:39;97810.91;;;13.18;100.00
36502;BME280;25393;46.108;3.390;2023-04-28T03:30:06;97801.22;;;13.11;100.00
36502;BME280;25393;46.108;3.390;2023-04-28T03:32:33;97811.72;;;13.19;100.00
36502;BME280;25393;46.108;3.390;2023-04-28T03:35:02;97799.81;;;13.15;100.00
36502;BME280;25393;46.108;3.390;2023-04-28T03:37:32;97794.72;;;13.20;100.00
36502;BME280;25393;46.108;3.390;2023-04-28T03:39:58;97794.16;;;13.24;100.00
36502;BME280;25393;46.108;3.390;2023-04-28T03:42:25;97802.59;;;13.28;100.00
36502;BME280;25393;46.108;3.390;2023-04-28T03:44:51;97797.84;;;13.23;100.00
36502;BME280;25393;46.108;3.390;2023-04-28T03:47:18;97802.16;;;13.24;100.00
36502;BME280;25393;46.108;3.390;2023-04-28T03:49:44;97798.59;;;13.17;100.00
36502;BME280;25393;46.108;3.390;2023-04-28T03:52:11;97797.16;;;13.15;100.00
36502;BME280;25393;46.108;3.390;2023-04-28T03:54:37;97794.28;;;13.16;100.00
36502;BME280;25393;46.108;3.390;2023-04-28T03:57:04;97787.56;;;13.20;100.00
36502;BME280;25393;46.108;3.390;2023-04-28T03:59:32;97793.16;;;13.25;100.00
36502;BME280;25393;46.108;3.390;2023-04-28T04:01:59;97797.47;;;13.26;100.00
36502;BME280;25393;46.108;3.390;2023-04-28T04:04:25;97795.38;;;13.22;100.00
36502;BME280;25393;46.108;3.390;2023-04-28T04:06:52;97803.69;;;13.33;100.00
36502;BME280;25393;46.108;3.390;2023-04-28T04:09:19;97794.88;;;13.33;100.00
36502;BME280;25393;46.108;3.390;2023-04-28T04:11:46;97794.66;;;13.34;100.00
36502;BME280;25393;46.108;3.390;2023-04-28T04:14:12;97800.56;;;13.30;100.00
36502;BME280;25393;46.108;3.390;2023-04-28T04:16:39;97797.66;;;13.25;100.00
36502;BME280;25393;46.108;3.390;2023-04-28T04:19:08;97799.50;;;13.24;100.00
36502;BME280;25393;46.108;3.390;2023-04-28T04:21:34;97794.00;;;13.26;100.00
36502;BME280;25393;46.108;3.390;2023-04-28T04:24:01;97787.00;;;13.25;100.00
36502;BME280;25393;46.108;3.390;2023-04-28T04:26:27;97797.47;;;13.26;100.00
36502;BME280;25393;46.108;3.390;2023-04-28T04:28:54;97794.81;;;13.26;100.00
36502;BME280;25393;46.108;3.390;2023-04-28T04:31:20;97796.59;;;13.19;100.00
36502;BME280;25393;46.108;3.390;2023-04-28T04:33:48;97795.50;;;13.14;100.00
36502;BME280;25393;46.108;3.390;2023-04-28T04:36:14;97786.53;;;13.00;100.00
36502;BME280;25393;46.108;3.390;2023-04-28T04:38:41;97794.53;;;13.00;100.00
36502;BME280;25393;46.108;3.390;2023-04-28T04:41:10;97792.88;;;12.99;100.00
36502;BME280;25393;46.108;3.390;2023-04-28T04:43:37;97795.41;;;13.07;100.00
36502;BME280;25393;46.108;3.390;2023-04-28T04:46:06;97789.59;;;12.97;100.00
36502;BME280;25393;46.108;3.390;2023-04-28T04:48:33;97801.44;;;12.94;100.00
36502;BME280;25393;46.108;3.390;2023-04-28T04:51:00;97796.19;;;13.01;100.00
36502;BME280;25393;46.108;3.390;2023-04-28T04:53:27;97804.69;;;12.75;100.00
36502;BME280;25393;46.108;3.390;2023-04-28T04:55:54;97798.03;;;12.65;100.00
36502;BME280;25393;46.108;3.390;2023-04-28T04:58:20;97816.34;;;12.74;100.00
36502;BME280;25393;46.108;3.390;2023-04-28T05:00:47;97813.00;;;12.87;100.00
36502;BME280;25393;46.108;3.390;2023-04-28T05:03:13;97825.09;;;12.89;100.00
36502;BME280;25393;46.108;3.390;2023-04-28T05:05:40;97800.06;;;12.63;100.00
36502;BME280;25393;46.108;3.390;2023-04-28T05:08:06;97834.50;;;12.71;100.00
36502;BME280;25393;46.108;3.390;2023-04-28T05:10:34;97829.38;;;12.69;100.00
36502;BME280;25393;46.108;3.390;2023-04-28T05:13:01;97822.97;;;12.64;100.00
36502;BME280;25393;46.108;3.390;2023-04-28T05:15:28;97852.41;;;12.77;100.00
36502;BME280;25393;46.108;3.390;2023-04-28T05:17:55;97854.41;;;12.75;100.00
36502;BME280;25393;46.108;3.390;2023-04-28T05:20:22;97857.06;;;12.75;100.00
36502;BME280;25393;46.108;3.390;2023-04-28T05:22:49;97866.03;;;12.74;100.00
36502;BME280;25393;46.108;3.390;2023-04-28T05:25:16;97870.91;;;12.70;100.00
36502;BME280;25393;46.108;3.390;2023-04-28T05:27:42;97869.34;;;12.76;100.00
36502;BME280;25393;46.108;3.390;2023-04-28T05:30:12;97863.38;;;12.74;100.00
36502;BME280;25393;46.108;3.390;2023-04-28T05:32:41;97878.31;;;12.89;100.00
36502;BME280;25393;46.108;3.390;2023-04-28T05:35:07;97875.34;;;12.99;100.00
36502;BME280;25393;46.108;3.390;2023-04-28T05:37:36;97869.00;;;13.00;100.00
36502;BME280;25393;46.108;3.390;2023-04-28T05:40:03;97866.50;;;13.13;100.00
36502;BME280;25393;46.108;3.390;2023-04-28T05:42:30;97876.94;;;13.29;100.00
36502;BME280;25393;46.108;3.390;2023-04-28T05:44:57;97859.34;;;13.56;100.00
36502;BME280;25393;46.108;3.390;2023-04-28T05:47:23;97868.25;;;13.91;100.00
36502;BME280;25393;46.108;3.390;2023-04-28T05:49:51;97855.28;;;14.16;100.00
36502;BME280;25393;46.108;3.390;2023-04-28T05:52:17;97856.13;;;14.16;98.62
36502;BME280;25393;46.108;3.390;2023-04-28T05:54:43;97844.88;;;14.21;98.57
36502;BME280;25393;46.108;3.390;2023-04-28T05:57:10;97860.88;;;14.21;96.83
36502;BME280;25393;46.108;3.390;2023-04-28T05:59:37;97854.66;;;14.07;97.82
36502;BME280;25393;46.108;3.390;2023-04-28T06:02:07;97859.53;;;14.04;99.62
36502;BME280;25393;46.108;3.390;2023-04-28T06:04:37;97858.31;;;14.06;97.45
36502;BME280;25393;46.108;3.390;2023-04-28T06:07:15;97877.47;;;14.23;98.02
36502;BME280;25393;46.108;3.390;2023-04-28T06:09:42;97872.00;;;14.31;97.90
36502;BME280;25393;46.108;3.390;2023-04-28T06:12:12;97873.34;;;14.41;97.56
36502;BME280;25393;46.108;3.390;2023-04-28T06:14:41;97886.09;;;14.46;97.48
36502;BME280;25393;46.108;3.390;2023-04-28T06:17:08;97881.13;;;14.43;98.97
36502;BME280;25393;46.108;3.390;2023-04-28T06:19:37;97856.25;;;14.36;99.57
36502;BME280;25393;46.108;3.390;2023-04-28T06:22:06;97882.06;;;14.63;98.70
36502;BME280;25393;46.108;3.390;2023-04-28T06:24:33;97864.03;;;14.72;96.11
36502;BME280;25393;46.108;3.390;2023-04-28T06:26:59;97862.22;;;14.85;95.09
36502;BME280;25393;46.108;3.390;2023-04-28T06:29:26;97865.56;;;14.94;95.09
36502;BME280;25393;46.108;3.390;2023-04-28T06:31:53;97881.34;;;14.95;96.35
36502;BME280;25393;46.108;3.390;2023-04-28T06:34:24;97877.25;;;14.93;96.89
36502;BME280;25393;46.108;3.390;2023-04-28T06:36:54;97877.03;;;14.88;97.38
36502;BME280;25393;46.108;3.390;2023-04-28T06:39:23;97874.78;;;14.91;96.66
36502;BME280;25393;46.108;3.390;2023-04-28T06:41:49;97879.75;;;15.01;96.99
36502;BME280;25393;46.108;3.390;2023-04-28T06:44:16;97860.84;;;15.02;97.14
36502;BME280;25393;46.108;3.390;2023-04-28T06:46:43;97870.78;;;15.28;96.62
36502;BME280;25393;46.108;3.390;2023-04-28T06:49:12;97867.38;;;15.61;94.19
36502;BME280;25393;46.108;3.390;2023-04-28T06:51:42;97869.66;;;15.90;92.62
36502;BME280;25393;46.108;3.390;2023-04-28T06:54:09;97861.41;;;16.11;91.09
36502;BME280;25393;46.108;3.390;2023-04-28T06:56:42;97847.56;;;16.34;89.25
36502;BME280;25393;46.108;3.390;2023-04-28T06:59:12;97846.66;;;16.66;86.24
36502;BME280;25393;46.108;3.390;2023-04-28T07:01:42;97845.75;;;16.92;85.88
36502;BME280;25393;46.108;3.390;2023-04-28T07:04:10;97835.94;;;17.11;85.72
36502;BME280;25393;46.108;3.390;2023-04-28T07:06:37;97856.78;;;17.71;84.75
36502;BME280;25393;46.108;3.390;2023-04-28T07:09:06;97853.91;;;17.98;81.26
36502;BME280;25393;46.108;3.390;2023-04-28T07:11:36;97861.19;;;18.15;78.96
36502;BME280;25393;46.108;3.390;2023-04-28T07:14:03;97862.16;;;18.39;78.91
36502;BME280;25393;46.108;3.390;2023-04-28T07:16:29;97852.13;;;18.71;78.45
36502;BME280;25393;46.108;3.390;2023-04-28T07:18:56;97859.47;;;19.12;78.51
36502;BME280;25393;46.108;3.390;2023-04-28T07:21:23;97872.09;;;19.41;76.95
36502;BME280;25393;46.108;3.390;2023-04-28T07:23:49;97869.25;;;19.66;76.23
36502;BME280;25393;46.108;3.390;2023-04-28T07:26:16;97871.41;;;19.87;73.60
36502;BME280;25393;46.108;3.390;2023-04-28T07:28:43;97851.84;;;19.91;71.92
36502;BME280;25393;46.108;3.390;2023-04-28T07:31:10;97875.19;;;20.32;71.68
36502;BME280;25393;46.108;3.390;2023-04-28T07:33:36;97869.00;;;20.43;68.82
36502;BME280;25393;46.108;3.390;2023-04-28T07:36:03;97863.16;;;20.47;68.10
36502;BME280;25393;46.108;3.390;2023-04-28T07:38:33;97857.50;;;20.60;67.90
36502;BME280;25393;46.108;3.390;2023-04-28T07:41:01;97861.91;;;20.77;66.40
36502;BME280;25393;46.108;3.390;2023-04-28T07:43:28;97870.34;;;20.81;64.79
36502;BME280;25393;46.108;3.390;2023-04-28T07:45:55;97873.38;;;20.84;64.98
36502;BME280;25393;46.108;3.390;2023-04-28T07:48:22;97864.94;;;20.92;64.97
36502;BME280;25393;46.108;3.390;2023-04-28T07:50:49;97863.34;;;21.20;65.13
36502;BME280;25393;46.108;3.390;2023-04-28T07:53:15;97869.28;;;21.50;64.63
36502;BME280;25393;46.108;3.390;2023-04-28T07:55:42;97857.22;;;21.69;63.97
36502;BME280;25393;46.108;3.390;2023-04-28T07:58:10;97846.97;;;22.00;62.21
36502;BME280;25393;46.108;3.390;2023-04-28T08:00:37;97838.66;;;22.39;60.41
36502;BME280;25393;46.108;3.390;2023-04-28T08:03:06;97844.25;;;22.71;58.84
36502;BME280;25393;46.108;3.390;2023-04-28T08:05:33;97851.22;;;22.89;58.53
36502;BME280;25393;46.108;3.390;2023-04-28T08:08:00;97846.94;;;23.15;59.66
36502;BME280;25393;46.108;3.390;2023-04-28T08:10:27;97851.34;;;23.48;58.93
36502;BME280;25393;46.108;3.390;2023-04-28T08:12:54;97851.28;;;23.64;57.97
36502;BME280;25393;46.108;3.390;2023-04-28T08:15:20;97849.63;;;23.63;54.36
36502;BME280;25393;46.108;3.390;2023-04-28T08:17:47;97840.81;;;23.46;54.10
36502;BME280;25393;46.108;3.390;2023-04-28T08:20:14;97856.13;;;23.40;55.11
36502;BME280;25393;46.108;3.390;2023-04-28T08:22:41;97859.75;;;23.24;56.81
36502;BME280;25393;46.108;3.390;2023-04-28T08:25:08;97850.41;;;23.10;56.25
36502;BME280;25393;46.108;3.390;2023-04-28T08:27:37;97851.13;;;23.27;56.55
36502;BME280;25393;46.108;3.390;2023-04-28T08:30:07;97850.03;;;23.77;55.41
36502;BME280;25393;46.108;3.390;2023-04-28T08:32:34;97840.00;;;24.09;55.90
36502;BME280;25393;46.108;3.390;2023-04-28T08:35:01;97857.38;;;24.13;53.09
36502;BME280;25393;46.108;3.390;2023-04-28T08:37:28;97854.25;;;24.00;54.08
36502;BME280;25393;46.108;3.390;2023-04-28T08:39:55;97856.94;;;24.31;55.24
36502;BME280;25393;46.108;3.390;2023-04-28T08:42:28;97855.16;;;24.47;52.03
36502;BME280;25393;46.108;3.390;2023-04-28T08:44:56;97855.94;;;24.43;53.21
36502;BME280;25393;46.108;3.390;2023-04-28T08:47:35;97850.94;;;24.24;53.63
36502;BME280;25393;46.108;3.390;2023-04-28T08:50:03;97854.34;;;24.10;54.53
36502;BME280;25393;46.108;3.390;2023-04-28T08:52:33;97851.78;;;23.93;55.03
36502;BME280;25393;46.108;3.390;2023-04-28T08:55:05;97857.41;;;23.86;55.65
36502;BME280;25393;46.108;3.390;2023-04-28T08:57:36;97861.28;;;23.64;55.88
36502;BME280;25393;46.108;3.390;2023-04-28T09:00:13;97844.53;;;23.67;55.54
36502;BME280;25393;46.108;3.390;2023-04-28T09:02:43;97847.78;;;23.69;56.88
36502;BME280;25393;46.108;3.390;2023-04-28T09:05:13;97846.66;;;23.65;54.92
36502;BME280;25393;46.108;3.390;2023-04-28T09:07:44;97848.06;;;24.04;54.34
36502;BME280;25393;46.108;3.390;2023-04-28T09:12:45;97837.22;;;25.70;52.71
36502;BME280;25393;46.108;3.390;2023-04-28T09:18:03;97836.94;;;25.97;48.97
36502;BME280;25393;46.108;3.390;2023-04-28T09:20:31;97838.28;;;25.59;50.65
36502;BME280;25393;46.108;3.390;2023-04-28T09:23:22;97840.63;;;25.25;52.07
36502;BME280;25393;46.108;3.390;2023-04-28T09:26:04;97833.06;;;25.38;52.64
36502;BME280;25393;46.108;3.390;2023-04-28T09:28:33;97832.59;;;25.66;50.75
36502;BME280;25393;46.108;3.390;2023-04-28T09:31:00;97831.50;;;26.12;49.74
36502;BME280;25393;46.108;3.390;2023-04-28T09:33:27;97829.63;;;26.03;49.81
36502;BME280;25393;46.108;3.390;2023-04-28T09:35:54;97830.16;;;26.20;48.48
36502;BME280;25393;46.108;3.390;2023-04-28T09:38:21;97818.75;;;26.13;49.95
36502;BME280;25393;46.108;3.390;2023-04-28T09:40:58;97826.63;;;26.04;51.23
36502;BME280;25393;46.108;3.390;2023-04-28T09:43:33;97806.81;;;25.94;50.21
36502;BME280;25393;46.108;3.390;2023-04-28T09:46:02;97819.84;;;25.92;50.54
36502;BME280;25393;46.108;3.390;2023-04-28T09:48:33;97808.19;;;25.86;50.86
36502;BME280;25393;46.108;3.390;2023-04-28T09:51:02;97819.00;;;26.11;52.29
36502;BME280;25393;46.108;3.390;2023-04-28T09:53:29;97807.50;;;26.65;50.56
36502;BME280;25393;46.108;3.390;2023-04-28T09:55:58;97800.00;;;27.06;45.36
36502;BME280;25393;46.108;3.390;2023-04-28T09:58:27;97802.44;;;27.56;44.56
36502;BME280;25393;46.108;3.390;2023-04-28T10:00:58;97796.00;;;27.81;45.04
36502;BME280;25393;46.108;3.390;2023-04-28T10:03:27;97786.88;;;27.96;44.34
36502;BME280;25393;46.108;3.390;2023-04-28T10:05:57;97792.59;;;28.52;42.91
36502;BME280;25393;46.108;3.390;2023-04-28T10:08:25;97781.91;;;29.21;39.28
36502;BME280;25393;46.108;3.390;2023-04-28T10:10:53;97783.94;;;30.04;40.12
36502;BME280;25393;46.108;3.390;2023-04-28T10:13:21;97783.38;;;30.76;37.88
36502;BME280;25393;46.108;3.390;2023-04-28T10:15:50;97779.41;;;31.23;37.42
36502;BME280;25393;46.108;3.390;2023-04-28T10:18:17;97783.00;;;31.32;35.68
36502;BME280;25393;46.108;3.390;2023-04-28T10:20:45;97787.94;;;31.07;37.91
36502;BME280;25393;46.108;3.390;2023-04-28T10:26:02;97782.06;;;31.14;36.51
36502;BME280;25393;46.108;3.390;2023-04-28T10:28:34;97781.03;;;32.04;36.45
36502;BME280;25393;46.108;3.390;2023-04-28T10:31:09;97772.88;;;32.52;35.80
36502;BME280;25393;46.108;3.390;2023-04-28T10:33:37;97760.38;;;32.59;35.19
36502;BME280;25393;46.108;3.390;2023-04-28T10:36:05;97771.38;;;32.77;36.38
36502;BME280;25393;46.108;3.390;2023-04-28T10:38:32;97760.72;;;32.66;33.47
36502;BME280;25393;46.108;3.390;2023-04-28T10:40:58;97772.41;;;32.98;37.56
36502;BME280;25393;46.108;3.390;2023-04-28T10:56:11;97748.09;;;33.48;34.57
36502;BME280;25393;46.108;3.390;2023-04-28T10:58:39;97746.00;;;33.45;34.72
36502;BME280;25393;46.108;3.390;2023-04-28T11:03:52;97739.06;;;33.56;34.34
36502;BME280;25393;46.108;3.390;2023-04-28T11:06:33;97742.28;;;33.75;34.71
36502;BME280;25393;46.108;3.390;2023-04-28T11:16:59;97726.22;;;32.91;35.44
36502;BME280;25393;46.108;3.390;2023-04-28T11:19:30;97725.41;;;32.34;36.39
36502;BME280;25393;46.108;3.390;2023-04-28T11:21:58;97729.28;;;32.33;37.78
36502;BME280;25393;46.108;3.390;2023-04-28T11:24:26;97721.28;;;32.54;37.58
36502;BME280;25393;46.108;3.390;2023-04-28T11:26:58;97729.06;;;33.17;35.81
36502;BME280;25393;46.108;3.390;2023-04-28T11:29:33;97715.44;;;33.46;34.51
36502;BME280;25393;46.108;3.390;2023-04-28T11:32:01;97708.94;;;34.02;33.63
36502;BME280;25393;46.108;3.390;2023-04-28T11:34:29;97712.03;;;34.39;33.10
36502;BME280;25393;46.108;3.390;2023-04-28T11:36:55;97711.63;;;34.11;32.84
36502;BME280;25393;46.108;3.390;2023-04-28T11:39:27;97711.75;;;33.51;33.58
36502;BME280;25393;46.108;3.390;2023-04-28T11:41:55;97719.63;;;33.01;35.13
36502;BME280;25393;46.108;3.390;2023-04-28T11:44:24;97721.78;;;33.30;34.58
36502;BME280;25393;46.108;3.390;2023-04-28T11:46:56;97706.59;;;33.67;34.33
36502;BME280;25393;46.108;3.390;2023-04-28T11:49:27;97699.13;;;33.76;33.67
36502;BME280;25393;46.108;3.390;2023-04-28T11:52:02;97695.91;;;33.56;34.35
36502;BME280;25393;46.108;3.390;2023-04-28T11:54:30;97707.03;;;32.91;35.70
36502;BME280;25393;46.108;3.390;2023-04-28T11:56:58;97701.78;;;31.85;37.83
36502;BME280;25393;46.108;3.390;2023-04-28T11:59:29;97688.47;;;30.76;39.85
36502;BME280;25393;46.108;3.390;2023-04-28T12:01:58;97700.97;;;30.28;38.46
36502;BME280;25393;46.108;3.390;2023-04-28T12:07:02;97695.34;;;30.87;37.92
36502;BME280;25393;46.108;3.390;2023-04-28T12:09:30;97711.69;;;30.10;39.06
36502;BME280;25393;46.108;3.390;2023-04-28T12:12:00;97702.28;;;30.16;39.68
36502;BME280;25393;46.108;3.390;2023-04-28T12:14:29;97702.06;;;30.13;42.27
36502;BME280;25393;46.108;3.390;2023-04-28T12:16:57;97700.38;;;30.71;42.35
36502;BME280;25393;46.108;3.390;2023-04-28T12:19:24;97690.91;;;31.27;38.64
36502;BME280;25393;46.108;3.390;2023-04-28T12:22:04;97690.72;;;32.30;38.43
36502;BME280;25393;46.108;3.390;2023-04-28T12:24:32;97686.34;;;32.94;36.38
36502;BME280;25393;46.108;3.390;2023-04-28T12:27:18;97690.22;;;32.67;36.77
36502;BME280;25393;46.108;3.390;2023-04-28T12:29:50;97695.16;;;32.08;37.66
36502;BME280;25393;46.108;3.390;2023-04-28T12:32:17;97704.66;;;31.80;38.53
36502;BME280;25393;46.108;3.390;2023-04-28T12:34:49;97700.78;;;31.37;39.62
36502;BME280;25393;46.108;3.390;2023-04-28T12:37:16;97698.31;;;31.27;39.30
36502;BME280;25393;46.108;3.390;2023-04-28T12:39:43;97683.69;;;31.31;40.04
36502;BME280;25393;46.108;3.390;2023-04-28T12:42:10;97699.31;;;31.31;40.28
36502;BME280;25393;46.108;3.390;2023-04-28T12:44:37;97689.09;;;31.45;41.15
36502;BME280;25393;46.108;3.390;2023-04-28T12:47:08;97689.94;;;31.32;40.59
36502;BME280;25393;46.108;3.390;2023-04-28T12:49:36;97691.19;;;31.26;41.58
36502;BME280;25393;46.108;3.390;2023-04-28T12:52:04;97682.00;;;30.99;42.47
36502;BME280;25393;46.108;3.390;2023-04-28T12:54:31;97691.34;;;31.07;41.56
36502;BME280;25393;46.108;3.390;2023-04-28T12:56:57;97688.31;;;31.08;42.67
36502;BME280;25393;46.108;3.390;2023-04-28T12:59:24;97692.16;;;31.65;38.54
36502;BME280;25393;46.108;3.390;2023-04-28T13:01:50;97685.84;;;31.87;40.98
36502;BME280;25393;46.108;3.390;2023-04-28T13:04:17;97687.66;;;31.47;40.57
36502;BME280;25393;46.108;3.390;2023-04-28T13:06:47;97691.16;;;31.61;40.72
36502;BME280;25393;46.108;3.390;2023-04-28T13:09:17;97682.63;;;31.41;40.36
36502;BME280;25393;46.108;3.390;2023-04-28T13:11:43;97691.78;;;31.00;40.65
36502;BME280;25393;46.108;3.390;2023-04-28T13:14:11;97688.00;;;30.74;42.58
36502;BME280;25393;46.108;3.390;2023-04-28T13:16:38;97683.03;;;30.35;42.78
36502;BME280;25393;46.108;3.390;2023-04-28T13:19:04;97682.03;;;30.17;41.47
36502;BME280;25393;46.108;3.390;2023-04-28T13:21:35;97676.28;;;30.46;41.59
36502;BME280;25393;46.108;3.390;2023-04-28T13:24:04;97666.25;;;31.05;40.93
36502;BME280;25393;46.108;3.390;2023-04-28T13:26:31;97669.44;;;31.65;39.68
36502;BME280;25393;46.108;3.390;2023-04-28T13:28:58;97659.09;;;31.84;41.76
36502;BME280;25393;46.108;3.390;2023-04-28T13:31:25;97666.94;;;32.08;40.50
36502;BME280;25393;46.108;3.390;2023-04-28T13:33:52;97659.69;;;32.60;38.46
36502;BME280;25393;46.108;3.390;2023-04-28T13:36:19;97653.59;;;32.80;37.43